createdAt,value
2018-06-13T00:01:40.641Z,3.00
2018-06-13T00:04:08.737Z,2.90
2018-06-13T00:06:36.836Z,3.50
2018-06-13T00:09:06.669Z,3.00
2018-06-13T00:11:34.775Z,2.83
2018-06-13T00:14:02.885Z,3.13
2018-06-13T00:16:30.993Z,3.10
2018-06-13T00:18:59.084Z,2.90
2018-06-13T00:21:27.202Z,2.97
2018-06-13T00:23:55.289Z,3.30
2018-06-13T00:26:23.385Z,3.13
2018-06-13T00:28:51.505Z,2.93
2018-06-13T00:31:19.589Z,4.00
2018-06-13T00:33:47.689Z,3.30
2018-06-13T00:36:15.793Z,3.23
2018-06-13T00:38:43.886Z,2.80
2018-06-13T00:41:11.999Z,3.20
2018-06-13T00:43:40.090Z,4.10
2018-06-13T00:46:08.181Z,3.47
2018-06-13T00:48:36.269Z,3.47
2018-06-13T00:51:04.389Z,3.23
2018-06-13T00:53:32.492Z,3.57
2018-06-13T00:56:05.993Z,3.50
2018-06-13T00:58:34.133Z,3.67
2018-06-13T01:01:02.238Z,2.87
2018-06-13T01:03:30.325Z,3.20
2018-06-13T01:05:58.433Z,3.87
2018-06-13T01:08:26.557Z,3.57
2018-06-13T01:10:54.674Z,3.77
2018-06-13T01:13:22.774Z,3.60
2018-06-13T01:15:50.870Z,3.87
2018-06-13T01:18:19.402Z,3.67
2018-06-13T01:20:47.492Z,3.70
2018-06-13T01:23:15.601Z,3.40
2018-06-13T01:25:43.702Z,3.37
2018-06-13T01:28:11.833Z,4.00
2018-06-13T01:30:39.958Z,3.47
2018-06-13T01:33:08.053Z,3.50
2018-06-13T01:35:36.161Z,3.67
2018-06-13T01:38:04.318Z,3.83
2018-06-13T01:40:32.461Z,3.17
2018-06-13T01:43:00.561Z,3.47
2018-06-13T01:45:28.678Z,4.23
2018-06-13T01:47:56.782Z,4.13
2018-06-13T01:50:24.935Z,3.50
2018-06-13T01:52:53.029Z,3.93
2018-06-13T01:55:21.137Z,3.50
2018-06-13T01:57:49.281Z,4.47
2018-06-13T02:00:17.395Z,3.40
2018-06-13T02:02:45.506Z,2.93
2018-06-13T02:05:15.757Z,3.40
2018-06-13T02:07:44.178Z,3.30
2018-06-13T02:10:13.121Z,3.33
2018-06-13T02:12:41.234Z,3.70
2018-06-13T02:15:09.368Z,3.10
2018-06-13T02:17:37.518Z,3.40
2018-06-13T02:20:05.670Z,3.87
2018-06-13T02:22:33.774Z,3.70
2018-06-13T02:25:01.894Z,3.67
2018-06-13T02:27:29.985Z,3.87
2018-06-13T02:29:58.095Z,3.67
2018-06-13T02:32:26.225Z,4.00
2018-06-13T02:34:54.345Z,4.20
2018-06-13T02:37:22.493Z,3.53
2018-06-13T02:39:50.594Z,3.80
2018-06-13T02:42:19.166Z,3.63
2018-06-13T02:44:47.254Z,3.80
2018-06-13T02:47:15.404Z,4.00
2018-06-13T02:49:43.511Z,3.57
2018-06-13T02:52:11.617Z,3.87
2018-06-13T02:54:39.703Z,3.53
2018-06-13T02:57:07.812Z,3.60
2018-06-13T02:59:35.949Z,4.47
2018-06-13T03:02:04.070Z,4.30
2018-06-13T03:04:32.181Z,3.83
2018-06-13T03:07:00.293Z,3.80
2018-06-13T03:09:28.385Z,3.53
2018-06-13T03:11:56.506Z,3.60
2018-06-13T03:14:24.594Z,3.00
2018-06-13T03:16:52.714Z,3.67
2018-06-13T03:19:20.834Z,3.70
2018-06-13T03:21:48.991Z,3.60
2018-06-13T03:24:17.084Z,3.70
2018-06-13T03:26:45.189Z,3.33
2018-06-13T03:29:13.281Z,3.70
2018-06-13T03:31:41.418Z,3.90
2018-06-13T03:34:09.517Z,3.87
2018-06-13T03:36:37.646Z,4.60
2018-06-13T03:39:07.274Z,4.43
2018-06-13T03:41:35.753Z,4.73
2018-06-13T03:44:03.897Z,4.60
2018-06-13T03:46:31.989Z,3.90
2018-06-13T03:49:00.086Z,4.73
2018-06-13T03:51:28.190Z,4.90
2018-06-13T03:53:56.302Z,5.33
2018-06-13T03:56:24.401Z,5.33
2018-06-13T03:58:52.533Z,4.57
2018-06-13T04:01:20.646Z,4.93
2018-06-13T04:03:48.769Z,4.23
2018-06-13T04:06:16.872Z,5.07
2018-06-13T04:08:44.993Z,5.47
2018-06-13T04:11:13.089Z,5.10
2018-06-13T04:13:41.224Z,4.60
2018-06-13T04:16:09.321Z,4.67
2018-06-13T04:18:37.441Z,5.20
2018-06-13T04:21:05.531Z,5.00
2018-06-13T04:23:33.648Z,4.97
2018-06-13T04:26:01.737Z,4.50
2018-06-13T04:28:29.845Z,4.33
2018-06-13T04:30:57.933Z,3.63
2018-06-13T04:33:26.069Z,3.60
2018-06-13T04:35:54.259Z,3.53
2018-06-13T04:38:22.302Z,4.20
2018-06-13T04:40:50.426Z,4.03
2018-06-13T04:43:18.536Z,4.17
2018-06-13T04:45:46.647Z,4.07
2018-06-13T04:48:14.781Z,4.20
2018-06-13T04:50:42.886Z,4.47
2018-06-13T04:53:10.986Z,3.70
2018-06-13T04:55:39.074Z,4.03
2018-06-13T04:58:07.180Z,3.70
2018-06-13T05:00:35.310Z,3.33
2018-06-13T05:03:03.401Z,3.67
2018-06-13T05:05:31.517Z,3.50
2018-06-13T05:07:59.629Z,3.63
2018-06-13T05:10:27.742Z,3.70
2018-06-13T05:12:55.829Z,3.90
2018-06-13T05:15:23.966Z,3.90
2018-06-13T05:17:52.058Z,3.67
2018-06-13T05:20:20.177Z,4.00
2018-06-13T05:22:48.269Z,4.00
2018-06-13T05:25:16.413Z,3.40
2018-06-13T05:27:44.546Z,3.33
2018-06-13T05:30:12.650Z,3.40
2018-06-13T05:32:40.779Z,3.03
2018-06-13T05:35:08.906Z,3.30
2018-06-13T05:37:37.025Z,3.63
2018-06-13T05:40:05.153Z,3.30
2018-06-13T05:42:33.257Z,3.37
2018-06-13T05:45:01.386Z,3.03
2018-06-13T05:47:29.506Z,2.93
2018-06-13T05:49:57.641Z,3.60
2018-06-13T05:52:25.746Z,3.30
2018-06-13T05:54:53.875Z,3.33
2018-06-13T05:57:22.034Z,3.90
2018-06-13T05:59:50.140Z,4.00
2018-06-13T06:02:18.260Z,3.90
2018-06-13T06:04:46.349Z,4.33
2018-06-13T06:07:14.467Z,4.03
2018-06-13T06:09:42.571Z,3.80
2018-06-13T06:12:10.710Z,4.00
2018-06-13T06:14:38.798Z,3.80
2018-06-13T06:17:06.934Z,3.50
2018-06-13T06:19:35.041Z,3.97
2018-06-13T06:22:03.202Z,3.60
2018-06-13T06:24:31.298Z,3.63
2018-06-13T06:26:59.433Z,3.60
2018-06-13T06:29:27.538Z,3.37
2018-06-13T06:31:55.666Z,3.40
2018-06-13T06:34:23.758Z,3.17
2018-06-13T06:36:51.927Z,3.10
2018-06-13T06:39:19.990Z,3.20
2018-06-13T06:41:48.101Z,3.20
2018-06-13T06:44:16.193Z,2.93
2018-06-13T06:46:44.310Z,3.40
2018-06-13T06:49:12.403Z,2.80
2018-06-13T06:51:40.513Z,2.93
2018-06-13T06:54:08.609Z,2.53
2018-06-13T06:56:36.706Z,2.20
2018-06-13T06:59:04.833Z,2.67
2018-06-13T07:01:32.925Z,2.83
2018-06-13T07:04:01.049Z,2.53
2018-06-13T07:06:29.142Z,2.77
2018-06-13T07:08:57.261Z,2.17
2018-06-13T07:11:25.341Z,1.93
2018-06-13T07:13:53.458Z,2.03
2018-06-13T07:16:21.545Z,2.67
2018-06-13T07:18:49.653Z,2.40
2018-06-13T07:21:17.755Z,2.37
2018-06-13T07:23:45.874Z,2.13
2018-06-13T07:26:13.980Z,2.13
2018-06-13T07:28:42.122Z,2.60
2018-06-13T07:31:10.214Z,2.23
2018-06-13T07:33:38.376Z,2.10
2018-06-13T07:36:06.430Z,2.50
2018-06-13T07:38:34.541Z,2.00
2018-06-13T07:41:02.633Z,2.43
2018-06-13T07:43:30.738Z,1.83
2018-06-13T07:45:58.837Z,2.20
2018-06-13T07:48:26.925Z,2.10
2018-06-13T07:50:55.010Z,2.20
2018-06-13T07:53:23.107Z,2.30
2018-06-13T07:55:51.233Z,1.93
2018-06-13T07:58:19.330Z,2.13
2018-06-13T08:00:47.437Z,2.03
2018-06-13T08:03:15.530Z,2.30
2018-06-13T08:05:44.863Z,2.10
2018-06-13T08:08:12.954Z,2.10
2018-06-13T08:10:41.072Z,2.00
2018-06-13T08:13:09.178Z,1.90
2018-06-13T08:15:37.280Z,2.13
2018-06-13T08:18:05.422Z,2.37
2018-06-13T08:20:35.250Z,2.30
2018-06-13T08:23:03.689Z,2.10
2018-06-13T08:25:33.489Z,2.00
2018-06-13T08:28:01.585Z,2.00
2018-06-13T08:30:29.821Z,2.33
2018-06-13T08:32:58.309Z,2.30
2018-06-13T08:35:26.849Z,2.37
2018-06-13T08:37:54.955Z,2.30
2018-06-13T08:40:23.057Z,2.17
2018-06-13T08:42:51.458Z,1.90
2018-06-13T08:45:19.554Z,2.80
2018-06-13T08:47:47.646Z,2.00
2018-06-13T08:50:15.753Z,1.90
2018-06-13T08:52:43.910Z,2.13
2018-06-13T08:55:11.997Z,2.00
2018-06-13T08:57:40.090Z,1.83
2018-06-13T09:00:08.559Z,1.57
2018-06-13T09:02:36.689Z,1.60
2018-06-13T09:05:04.776Z,2.40
2018-06-13T09:07:32.876Z,1.57
2018-06-13T09:10:00.992Z,1.87
2018-06-13T09:12:29.105Z,1.53
2018-06-13T09:14:57.283Z,1.40
2018-06-13T09:17:25.373Z,1.53
2018-06-13T09:19:53.467Z,1.53
2018-06-13T09:22:21.582Z,1.53
2018-06-13T09:24:49.683Z,1.30
2018-06-13T09:27:17.803Z,1.43
2018-06-13T09:29:45.898Z,1.60
2018-06-13T09:32:14.010Z,1.50
2018-06-13T09:34:42.101Z,1.40
2018-06-13T09:37:10.202Z,1.40
2018-06-13T09:39:38.288Z,1.23
2018-06-13T09:42:06.387Z,1.17
2018-06-13T09:44:34.490Z,1.33
2018-06-13T09:47:06.908Z,1.50
2018-06-13T09:49:30.725Z,1.37
2018-06-13T09:51:58.825Z,1.33
2018-06-13T09:54:26.936Z,1.77
2018-06-13T09:56:55.050Z,1.70
2018-06-13T09:59:23.194Z,1.83
2018-06-13T10:02:05.450Z,1.50
2018-06-13T10:04:33.545Z,1.30
2018-06-13T10:08:26.049Z,1.63
2018-06-13T10:10:54.145Z,1.30
2018-06-13T10:13:22.242Z,1.40
2018-06-13T10:15:50.330Z,1.30
2018-06-13T10:18:18.442Z,1.50
2018-06-13T10:20:46.518Z,1.30
2018-06-13T10:23:14.646Z,1.13
2018-06-13T10:25:42.746Z,1.27
2018-06-13T10:28:10.845Z,1.40
2018-06-13T10:30:38.996Z,1.87
2018-06-13T10:33:07.102Z,1.37
2018-06-13T10:35:35.906Z,2.00
2018-06-13T10:38:04.308Z,1.70
2018-06-13T10:40:32.431Z,1.70
2018-06-13T10:43:00.542Z,1.70
2018-06-13T10:45:28.645Z,1.63
2018-06-13T10:47:56.737Z,1.67
2018-06-13T10:50:24.837Z,1.87
2018-06-13T10:52:52.944Z,1.50
2018-06-13T10:55:21.038Z,1.87
2018-06-13T10:57:49.134Z,1.80
2018-06-13T11:00:17.251Z,1.73
2018-06-13T11:02:45.341Z,1.77
2018-06-13T11:05:13.441Z,1.90
2018-06-13T11:07:41.526Z,1.60
2018-06-13T11:10:09.658Z,1.67
2018-06-13T11:12:37.778Z,1.80
2018-06-13T11:15:05.913Z,1.73
2018-06-13T11:17:34.004Z,1.60
2018-06-13T11:20:02.106Z,2.20
2018-06-13T11:22:30.209Z,1.67
2018-06-13T11:24:58.297Z,1.97
2018-06-13T11:27:26.408Z,2.10
2018-06-13T11:29:54.529Z,1.97
2018-06-13T11:32:22.630Z,2.10
2018-06-13T11:34:55.058Z,2.10
2018-06-13T11:37:23.166Z,2.07
2018-06-13T11:39:51.265Z,2.30
2018-06-13T11:42:19.358Z,2.30
2018-06-13T11:44:47.446Z,2.20
2018-06-13T11:47:15.545Z,2.23
2018-06-13T11:49:43.654Z,2.67
2018-06-13T11:52:11.808Z,2.00
2018-06-13T11:54:39.912Z,2.30
2018-06-13T11:57:08.034Z,1.87
2018-06-13T11:59:36.162Z,2.30
2018-06-13T12:02:04.274Z,2.47
2018-06-13T12:04:32.399Z,2.10
2018-06-13T12:07:00.526Z,2.43
2018-06-13T12:09:28.634Z,1.73
2018-06-13T12:11:56.754Z,1.43
2018-06-13T12:14:24.867Z,2.10
2018-06-13T12:16:53.241Z,1.90
2018-06-13T12:19:21.326Z,2.00
2018-06-13T12:21:49.421Z,2.00
2018-06-13T12:24:17.524Z,2.40
2018-06-13T12:26:45.861Z,2.43
2018-06-13T12:29:14.109Z,1.80
2018-06-13T12:31:42.226Z,1.50
2018-06-13T12:34:10.376Z,1.70
2018-06-13T12:36:38.481Z,1.60
2018-06-13T12:39:07.272Z,1.40
2018-06-13T12:41:35.369Z,1.90
2018-06-13T12:44:03.767Z,1.53
2018-06-13T12:46:32.452Z,2.17
2018-06-13T12:49:00.553Z,1.90
2018-06-13T12:51:28.729Z,2.20
2018-06-13T12:53:56.830Z,1.77
2018-06-13T12:56:24.926Z,1.60
2018-06-13T12:58:53.068Z,2.03
2018-06-13T13:01:21.150Z,1.80
2018-06-13T13:03:49.245Z,1.67
2018-06-13T13:06:17.353Z,1.50
2018-06-13T13:08:45.473Z,1.70
2018-06-13T13:11:13.598Z,2.00
2018-06-13T13:13:41.674Z,1.87
2018-06-13T13:16:09.764Z,1.60
2018-06-13T13:18:37.917Z,1.80
2018-06-13T13:21:06.061Z,1.90
2018-06-13T13:23:34.195Z,1.80
2018-06-13T13:26:02.294Z,1.73
2018-06-13T13:28:30.390Z,1.60
2018-06-13T13:30:58.781Z,1.70
2018-06-13T13:33:26.882Z,2.13
2018-06-13T13:35:54.978Z,1.70
2018-06-13T13:38:23.090Z,1.73
2018-06-13T13:40:51.201Z,2.17
2018-06-13T13:43:19.306Z,2.00
2018-06-13T13:45:47.987Z,1.97
2018-06-13T13:48:15.993Z,1.80
2018-06-13T13:50:44.085Z,2.07
2018-06-13T13:53:12.197Z,1.70
2018-06-13T13:55:40.771Z,2.10
2018-06-13T13:58:08.857Z,1.80
2018-06-13T14:00:36.958Z,1.53
2018-06-13T14:03:05.110Z,2.30
2018-06-13T14:05:33.206Z,1.50
2018-06-13T14:08:01.293Z,1.80
2018-06-13T14:10:29.414Z,2.07
2018-06-13T14:12:57.510Z,2.13
2018-06-13T14:15:25.616Z,1.83
2018-06-13T14:17:53.713Z,1.60
2018-06-13T14:20:21.814Z,1.70
2018-06-13T14:22:49.905Z,1.60
2018-06-13T14:25:17.997Z,1.50
2018-06-13T14:27:46.080Z,1.50
2018-06-13T14:30:14.173Z,1.40
2018-06-13T14:32:42.267Z,1.43
2018-06-13T14:35:10.371Z,1.30
2018-06-13T14:37:38.464Z,1.70
2018-06-13T14:40:06.575Z,1.70
2018-06-13T14:42:34.699Z,7.33
2018-06-13T14:45:02.795Z,3.53
2018-06-13T14:47:30.888Z,2.03
2018-06-13T14:49:58.983Z,7.10
2018-06-13T14:52:27.108Z,2.00
2018-06-13T14:54:55.222Z,2.37
2018-06-13T14:57:23.334Z,2.53
2018-06-13T14:59:51.429Z,1.43
2018-06-13T15:02:19.539Z,1.70
2018-06-13T15:04:47.647Z,1.77
2018-06-13T15:07:15.749Z,2.00
2018-06-13T15:09:43.855Z,1.80
2018-06-13T15:12:11.974Z,1.80
2018-06-13T15:14:40.066Z,1.60
2018-06-13T15:17:08.166Z,2.27
2018-06-13T15:19:36.269Z,1.73
2018-06-13T15:22:04.374Z,2.23
2018-06-13T15:24:32.508Z,2.40
2018-06-13T15:27:00.617Z,1.83
2018-06-13T15:29:28.732Z,1.80
2018-06-13T15:31:56.855Z,1.87
2018-06-13T15:34:24.983Z,2.17
2018-06-13T15:36:53.082Z,1.83
2018-06-13T15:39:21.198Z,2.23
2018-06-13T15:41:49.288Z,2.07
2018-06-13T15:44:17.431Z,1.70
2018-06-13T15:46:45.525Z,2.10
2018-06-13T15:49:13.644Z,1.80
2018-06-13T15:51:41.737Z,1.83
2018-06-13T15:54:09.854Z,2.13
2018-06-13T15:56:37.954Z,1.80
2018-06-13T15:59:06.066Z,1.70
2018-06-13T16:01:34.166Z,1.60
2018-06-13T16:04:02.299Z,1.87
2018-06-13T16:06:30.412Z,1.73
2018-06-13T16:08:58.557Z,1.73
2018-06-13T16:11:26.657Z,1.87
2018-06-13T16:13:54.752Z,1.60
2018-06-13T16:16:24.411Z,1.70
2018-06-13T16:18:52.513Z,2.43
2018-06-13T16:21:20.847Z,1.60
2018-06-13T16:23:49.120Z,1.57
2018-06-13T16:26:17.229Z,1.80
2018-06-13T16:28:45.326Z,1.60
2018-06-13T16:31:13.431Z,1.60
2018-06-13T16:33:41.881Z,1.80
2018-06-13T16:36:10.003Z,1.70
2018-06-13T16:38:38.194Z,1.60
2018-06-13T16:41:06.521Z,2.13
2018-06-13T16:43:34.628Z,1.90
2018-06-13T16:46:02.791Z,1.50
2018-06-13T16:48:30.955Z,2.17
2018-06-13T16:51:04.606Z,1.37
2018-06-13T16:53:44.573Z,1.40
2018-06-13T16:56:13.069Z,1.60
2018-06-13T16:58:41.201Z,1.50
2018-06-13T17:01:09.314Z,1.70
2018-06-13T17:03:37.425Z,1.87
2018-06-13T17:06:05.551Z,1.97
2018-06-13T17:08:33.657Z,1.47
2018-06-13T17:11:01.778Z,2.00
2018-06-13T17:13:30.150Z,1.80
2018-06-13T17:15:58.229Z,1.53
2018-06-13T17:18:26.486Z,1.47
2018-06-13T17:20:54.609Z,2.07
2018-06-13T17:23:22.794Z,1.43
2018-06-13T17:25:51.017Z,2.60
2018-06-13T17:28:19.114Z,1.57
2018-06-13T17:30:47.214Z,2.00
2018-06-13T17:33:15.322Z,2.03
2018-06-13T17:35:43.437Z,1.67
2018-06-13T17:38:11.550Z,1.97
2018-06-13T17:40:39.684Z,1.63
2018-06-13T17:43:07.793Z,1.90
2018-06-13T17:45:35.898Z,2.37
2018-06-13T17:48:04.016Z,1.80
2018-06-13T17:50:32.110Z,1.80
2018-06-13T17:53:00.200Z,1.80
2018-06-13T17:55:28.334Z,1.80
2018-06-13T17:57:56.449Z,2.33
2018-06-13T18:00:24.549Z,2.10
2018-06-13T18:02:52.649Z,2.40
2018-06-13T18:05:20.793Z,2.17
2018-06-13T18:07:48.938Z,2.40
2018-06-13T18:10:17.049Z,1.80
2018-06-13T18:12:45.221Z,2.63
2018-06-13T18:15:13.333Z,2.17
2018-06-13T18:17:41.442Z,2.70
2018-06-13T18:20:09.590Z,2.27
2018-06-13T18:22:37.734Z,2.03
2018-06-13T18:25:05.850Z,2.20
2018-06-13T18:27:33.977Z,2.23
2018-06-13T18:30:02.118Z,2.60
2018-06-13T18:32:30.230Z,2.53
2018-06-13T18:34:58.349Z,2.10
2018-06-13T18:37:27.577Z,2.30
2018-06-13T18:39:55.702Z,2.70
2018-06-13T18:42:23.825Z,2.20
2018-06-13T18:44:51.918Z,2.20
2018-06-13T18:47:20.010Z,2.23
2018-06-13T18:49:48.126Z,2.20
2018-06-13T18:52:16.270Z,2.10
2018-06-13T18:54:44.345Z,2.10
2018-06-13T18:57:12.455Z,2.50
2018-06-13T18:59:40.566Z,2.30
2018-06-13T19:02:08.729Z,2.47
2018-06-13T19:04:36.839Z,2.50
2018-06-13T19:07:04.941Z,2.40
2018-06-13T19:09:33.042Z,2.20
2018-06-13T19:12:01.159Z,1.80
2018-06-13T19:14:29.278Z,2.07
2018-06-13T19:16:57.406Z,2.10
2018-06-13T19:19:25.605Z,2.57
2018-06-13T19:21:53.898Z,2.40
2018-06-13T19:24:22.006Z,3.30
2018-06-13T19:26:50.117Z,2.83
2018-06-13T19:29:18.227Z,2.73
2018-06-13T19:31:46.322Z,2.50
2018-06-13T19:34:14.434Z,2.33
2018-06-13T19:36:42.550Z,2.70
2018-06-13T19:39:11.007Z,2.67
2018-06-13T19:41:39.126Z,2.30
2018-06-13T19:44:07.246Z,3.03
2018-06-13T19:46:35.496Z,3.10
2018-06-13T19:49:03.674Z,2.93
2018-06-13T19:51:31.825Z,3.20
2018-06-13T19:54:05.186Z,2.50
2018-06-13T19:56:33.738Z,2.87
2018-06-13T19:59:02.092Z,2.70
2018-06-13T20:01:30.210Z,3.10
2018-06-13T20:04:03.676Z,2.67
2018-06-13T20:06:31.785Z,2.60
2018-06-13T20:08:59.885Z,3.03
2018-06-13T20:11:27.990Z,3.10
2018-06-13T20:14:01.350Z,2.93
2018-06-13T20:16:40.502Z,3.03
2018-06-13T20:19:13.958Z,2.97
2018-06-13T20:21:42.433Z,2.50
2018-06-13T20:24:10.533Z,3.20
2018-06-13T20:26:44.018Z,3.27
2018-06-13T20:29:17.473Z,3.00
2018-06-13T20:31:46.857Z,3.27
2018-06-13T20:34:14.983Z,3.60
2018-06-13T20:36:43.082Z,2.97
2018-06-13T20:39:11.849Z,3.40
2018-06-13T20:41:40.588Z,3.17
2018-06-13T20:44:09.211Z,3.60
2018-06-13T20:46:37.393Z,3.37
2018-06-13T20:49:05.530Z,2.57
2018-06-13T20:51:33.630Z,2.90
2018-06-13T20:54:01.759Z,3.37
2018-06-13T20:56:30.205Z,3.00
2018-06-13T20:58:58.715Z,3.40
2018-06-13T21:01:27.066Z,3.27
2018-06-13T21:03:55.186Z,3.60
2018-06-13T21:06:24.034Z,3.70
2018-06-13T21:08:52.164Z,3.23
2018-06-13T21:11:20.278Z,3.20
2018-06-13T21:13:48.381Z,3.00
2018-06-13T21:16:16.845Z,3.07
2018-06-13T21:18:44.961Z,3.40
2018-06-13T21:21:13.077Z,3.70
2018-06-13T21:23:41.185Z,3.80
2018-06-13T21:26:09.291Z,3.10
2018-06-13T21:28:37.474Z,3.43
2018-06-13T21:31:05.580Z,2.80
2018-06-13T21:33:33.692Z,3.40
2018-06-13T21:36:01.791Z,3.37
2018-06-13T21:38:29.934Z,3.43
2018-06-13T21:40:58.051Z,3.43
2018-06-13T21:43:26.165Z,3.43
2018-06-13T21:45:54.277Z,4.27
2018-06-13T21:48:22.395Z,3.70
2018-06-13T21:50:50.495Z,4.03
2018-06-13T21:53:18.631Z,3.60
2018-06-13T21:55:46.731Z,3.97
2018-06-13T21:58:14.834Z,3.77
2018-06-13T22:00:42.946Z,3.87
2018-06-13T22:03:11.037Z,4.27
2018-06-13T22:05:39.136Z,4.30
2018-06-13T22:08:07.275Z,4.17
2018-06-13T22:10:35.373Z,4.03
2018-06-13T22:13:03.489Z,4.50
2018-06-13T22:15:31.590Z,4.10
2018-06-13T22:17:59.895Z,4.87
2018-06-13T22:20:28.269Z,4.57
2018-06-13T22:22:56.541Z,4.53
2018-06-13T22:25:24.675Z,4.73
2018-06-13T22:27:52.766Z,4.80
2018-06-13T22:30:20.882Z,4.93
2018-06-13T22:32:48.998Z,5.30
2018-06-13T22:35:17.118Z,5.03
2018-06-13T22:37:45.257Z,5.63
2018-06-13T22:40:13.353Z,5.00
2018-06-13T22:42:41.462Z,5.03
2018-06-13T22:45:09.634Z,5.17
2018-06-13T22:47:37.733Z,5.07
2018-06-13T22:50:06.065Z,5.30
2018-06-13T22:52:34.158Z,4.67
2018-06-13T22:55:02.254Z,5.17
2018-06-13T22:57:30.433Z,5.47
2018-06-13T22:59:58.554Z,4.83
2018-06-13T23:02:26.678Z,6.00
2018-06-13T23:04:54.849Z,5.23
2018-06-13T23:07:22.984Z,4.87
2018-06-13T23:09:51.085Z,5.57
2018-06-13T23:12:19.177Z,5.90
2018-06-13T23:14:47.294Z,4.80
2018-06-13T23:17:15.386Z,5.67
2018-06-13T23:19:43.506Z,5.60
2018-06-13T23:22:11.619Z,4.80
2018-06-13T23:24:39.722Z,5.00
2018-06-13T23:27:07.834Z,5.73
2018-06-13T23:29:35.946Z,6.00
2018-06-13T23:32:04.089Z,5.00
2018-06-13T23:34:32.194Z,5.80
2018-06-13T23:37:00.288Z,6.30
2018-06-13T23:39:28.380Z,5.43
2018-06-13T23:41:56.478Z,5.33
2018-06-13T23:44:24.657Z,5.57
2018-06-13T23:46:52.763Z,5.93
2018-06-13T23:49:20.879Z,6.40
2018-06-13T23:51:48.978Z,6.10
2018-06-13T23:54:17.132Z,5.73
2018-06-13T23:56:45.225Z,5.87
2018-06-13T23:59:13.385Z,6.23
